Repto La Esperanza, Puerto Rico
Current Conditions -  °F | °C
As of 7:56 PM on Saturday 20 Dec 2014 (Local Time) from TJSJ Reporting Station
Few Clouds Few Clouds  
Wind Chill: 79°   Ceiling: Unl
Heat Index: 82°   Visibility: 10mi
Dew Point: 72°   Wind: 5mph
Humidity: 79%   Direction: 110°ESE
Pressure: 30.04"   Gusts: NA
Location:  18.3866°N, 66.1135°W
Report Text: TJSJ 202356Z 11004KT 10SM FEW028 26/22 A3004 RMK AO2 SLP171 60003 T02610222 10294 20261 53019
Loading
Personal Weather Stations






























Interactive Weather Map New forecast layout! Learn more

10-Day Weather Forecast

Advertisements
Track Severe Weather on mobile